Time;durP1;ratioP1;P1;durP2;ratioP2;P2;SDS_P1;SDS_P2;PMS_P1;PMS_P2;Temp;Humidity;BMP_temperature;BMP_pressure;BME280_temperature;BME280_humidity;BME280_pressure;Samples;Min_cycle;Max_cycle;Signal;HPM_P1;HPM_P2
2022/04/15 00:01:47;;;;;;;;;;;9.70;75.10;;;;;;5035721;28;19940;-65
2022/04/15 00:04:14;;;;;;;;;;;9.60;75.80;;;;;;5044160;28;20342;-65
2022/04/15 00:06:41;;;;;;;;;;;9.60;76.30;;;;;;5033560;28;20025;-65
2022/04/15 00:09:08;;;;;;;;;;;9.50;77.70;;;;;;5020285;28;19928;-66
2022/04/15 00:11:35;;;;;;;;;;;9.50;76.80;;;;;;5033763;28;19935;-65
2022/04/15 00:14:02;;;;;;;;;;;9.50;76.70;;;;;;5033332;28;19983;-65
2022/04/15 00:16:29;;;;;;;;;;;9.50;76.60;;;;;;5034182;28;20019;-65
2022/04/15 00:18:57;;;;;;;;;;;9.40;76.50;;;;;;5033369;28;19929;-65
2022/04/15 00:21:24;;;;;;;;;;;9.40;77.60;;;;;;5033389;28;19929;-66
2022/04/15 00:23:55;;;;;;;;;;;9.40;78.70;;;;;;5033896;28;19946;-65
2022/04/15 00:26:22;;;;;;;;;;;9.30;79.00;;;;;;5040129;28;19933;-65
2022/04/15 00:28:49;;;;;;;;;;;9.30;77.60;;;;;;5033519;28;19933;-65
2022/04/15 00:31:16;;;;;;;;;;;9.30;78.70;;;;;;5035614;28;20839;-65
2022/04/15 00:33:43;;;;;;;;;;;9.20;79.50;;;;;;5033038;28;20498;-65
2022/04/15 00:36:10;;;;;;;;;;;9.20;80.50;;;;;;5037818;28;19929;-65
2022/04/15 00:38:37;;;;;;;;;;;9.20;80.60;;;;;;5022407;28;19937;-65
2022/04/15 00:41:04;;;;;;;;;;;9.20;80.00;;;;;;5033210;28;19929;-65
2022/04/15 00:43:32;;;;;;;;;;;9.10;80.80;;;;;;5032175;28;19968;-65
2022/04/15 00:46:09;;;;;;;;;;;9.10;80.50;;;;;;5020781;28;19933;-66
2022/04/15 00:48:36;;;;;;;;;;;9.10;80.30;;;;;;5022235;28;19929;-65
2022/04/15 00:51:04;;;;;;;;;;;9.00;80.90;;;;;;5036613;28;20395;-65
2022/04/15 00:53:32;;;;;;;;;;;9.10;78.90;;;;;;5034063;28;20411;-65
2022/04/15 00:56:03;;;;;;;;;;;9.00;78.30;;;;;;5033841;28;19932;-66
2022/04/15 00:58:33;;;;;;;;;;;9.00;78.30;;;;;;5034370;28;20481;-65
2022/04/15 01:01:00;;;;;;;;;;;9.00;78.80;;;;;;5027480;28;19978;-65
2022/04/15 01:03:28;;;;;;;;;;;9.00;80.90;;;;;;5032272;28;19924;-65
2022/04/15 01:06:01;;;;;;;;;;;8.90;80.90;;;;;;5037209;28;19928;-65
2022/04/15 01:08:30;;;;;;;;;;;8.90;80.20;;;;;;5038607;28;20399;-65
2022/04/15 01:10:58;;;;;;;;;;;8.80;79.70;;;;;;5048804;28;19932;-65
2022/04/15 01:13:26;;;;;;;;;;;8.90;80.40;;;;;;5032102;28;19929;-65
2022/04/15 01:15:54;;;;;;;;;;;8.80;80.90;;;;;;5034149;28;19929;-65
2022/04/15 01:18:21;;;;;;;;;;;8.70;80.10;;;;;;5033734;28;19975;-66
2022/04/15 01:20:49;;;;;;;;;;;8.80;80.60;;;;;;5031161;28;20375;-65
2022/04/15 01:23:16;;;;;;;;;;;8.70;80.10;;;;;;5036943;28;19939;-65
2022/04/15 01:25:43;;;;;;;;;;;8.70;81.00;;;;;;5031715;28;19925;-65
2022/04/15 01:28:10;;;;;;;;;;;8.60;82.10;;;;;;5035916;28;19928;-65
2022/04/15 01:30:37;;;;;;;;;;;8.60;82.10;;;;;;5037405;28;19933;-65
2022/04/15 01:33:04;;;;;;;;;;;8.60;82.50;;;;;;5032548;28;19968;-65
2022/04/15 01:35:33;;;;;;;;;;;8.60;82.10;;;;;;5027882;28;20332;-65
2022/04/15 01:38:02;;;;;;;;;;;8.50;81.40;;;;;;5020624;28;19935;-66
2022/04/15 01:40:29;;;;;;;;;;;8.60;81.90;;;;;;5036142;28;19929;-65
2022/04/15 01:42:56;;;;;;;;;;;8.60;81.80;;;;;;5032395;28;19955;-65
2022/04/15 01:45:23;;;;;;;;;;;8.50;81.40;;;;;;5032736;28;19936;-65
2022/04/15 01:47:52;;;;;;;;;;;8.50;82.00;;;;;;5029748;28;20020;-65
2022/04/15 01:50:19;;;;;;;;;;;8.50;81.80;;;;;;5014228;28;19932;-65
2022/04/15 01:52:46;;;;;;;;;;;8.50;82.30;;;;;;5046622;28;19937;-65
2022/04/15 01:55:12;;;;;;;;;;;8.40;81.50;;;;;;5035953;28;19956;-65
2022/04/15 01:57:39;;;;;;;;;;;8.40;80.70;;;;;;5037289;28;20014;-65
2022/04/15 02:00:07;;;;;;;;;;;8.40;79.40;;;;;;5050050;28;19933;-65
2022/04/15 02:02:38;;;;;;;;;;;8.40;79.60;;;;;;5034676;28;20394;-65
2022/04/15 02:05:05;;;;;;;;;;;8.40;80.30;;;;;;5036370;28;19935;-65
2022/04/15 02:07:32;;;;;;;;;;;8.40;82.20;;;;;;5035420;28;19932;-65
2022/04/15 02:09:59;;;;;;;;;;;8.30;82.90;;;;;;5033866;28;21234;-65
2022/04/15 02:12:26;;;;;;;;;;;8.30;80.90;;;;;;5032787;28;19975;-65
2022/04/15 02:14:53;;;;;;;;;;;8.30;82.80;;;;;;5032076;28;19932;-65
2022/04/15 02:17:21;;;;;;;;;;;8.20;82.20;;;;;;5045336;28;19925;-65
2022/04/15 02:19:50;;;;;;;;;;;8.30;82.10;;;;;;5047935;28;19929;-65
2022/04/15 02:22:17;;;;;;;;;;;8.20;81.20;;;;;;5031967;28;20495;-65
2022/04/15 02:24:44;;;;;;;;;;;8.20;81.40;;;;;;5037018;28;19936;-65
2022/04/15 02:27:11;;;;;;;;;;;8.10;81.00;;;;;;5030783;28;19929;-65
2022/04/15 02:29:38;;;;;;;;;;;8.10;80.60;;;;;;5035530;28;20376;-65
2022/04/15 02:32:05;;;;;;;;;;;8.10;80.50;;;;;;5035832;28;20472;-65
2022/04/15 02:34:32;;;;;;;;;;;8.10;80.80;;;;;;5044546;28;20519;-65
2022/04/15 02:36:59;;;;;;;;;;;8.10;80.80;;;;;;5035627;28;20051;-65
2022/04/15 02:39:26;;;;;;;;;;;8.10;81.90;;;;;;5035241;28;19932;-65
2022/04/15 02:41:55;;;;;;;;;;;8.10;82.50;;;;;;5031490;28;19929;-65
2022/04/15 02:44:23;;;;;;;;;;;8.00;83.60;;;;;;5035410;28;19929;-65
2022/04/15 02:46:51;;;;;;;;;;;8.00;82.70;;;;;;5029453;28;19936;-65
2022/04/15 02:49:18;;;;;;;;;;;8.00;82.50;;;;;;5017322;28;19936;-65
2022/04/15 02:51:45;;;;;;;;;;;7.90;82.10;;;;;;5034292;28;19932;-65
2022/04/15 02:54:12;;;;;;;;;;;8.00;82.30;;;;;;5030608;28;19929;-65
2022/04/15 02:56:39;;;;;;;;;;;7.90;83.40;;;;;;5020141;28;19970;-65
2022/04/15 02:59:06;;;;;;;;;;;7.90;84.80;;;;;;5032347;28;19932;-65
2022/04/15 03:01:33;;;;;;;;;;;7.90;84.60;;;;;;5030505;28;20312;-65
2022/04/15 03:04:00;;;;;;;;;;;7.90;84.50;;;;;;5029878;28;19936;-65
2022/04/15 03:06:27;;;;;;;;;;;7.80;83.70;;;;;;5034062;28;20291;-65
2022/04/15 03:08:55;;;;;;;;;;;7.80;82.90;;;;;;5021151;28;20034;-65
2022/04/15 03:11:22;;;;;;;;;;;7.80;83.80;;;;;;5034663;28;19929;-65
2022/04/15 03:13:49;;;;;;;;;;;7.70;84.10;;;;;;5034717;28;20020;-65
2022/04/15 03:16:15;;;;;;;;;;;7.70;84.70;;;;;;5030515;28;19928;-65
2022/04/15 03:18:42;;;;;;;;;;;7.70;85.20;;;;;;5027819;28;19953;-65
2022/04/15 03:21:09;;;;;;;;;;;7.70;84.80;;;;;;5035058;28;19963;-65
2022/04/15 03:23:36;;;;;;;;;;;7.60;85.50;;;;;;5021357;28;19968;-65
2022/04/15 03:26:03;;;;;;;;;;;7.60;83.50;;;;;;5032670;28;19933;-65
2022/04/15 03:28:30;;;;;;;;;;;7.70;83.70;;;;;;5029464;28;20023;-66
2022/04/15 03:30:57;;;;;;;;;;;7.70;83.10;;;;;;5032987;28;19933;-65
2022/04/15 03:33:24;;;;;;;;;;;7.60;83.50;;;;;;5035514;28;20731;-65
2022/04/15 03:35:51;;;;;;;;;;;7.60;84.00;;;;;;5035284;28;19929;-65
2022/04/15 03:38:18;;;;;;;;;;;7.60;84.10;;;;;;5034411;28;19979;-65
2022/04/15 03:40:45;;;;;;;;;;;7.60;84.00;;;;;;5030343;28;19975;-65
2022/04/15 03:43:11;;;;;;;;;;;7.50;83.60;;;;;;5034361;28;20981;-65
2022/04/15 03:45:39;;;;;;;;;;;7.50;84.30;;;;;;5031130;28;19936;-65
2022/04/15 03:48:06;;;;;;;;;;;7.60;85.20;;;;;;5033674;28;19955;-65
2022/04/15 03:50:33;;;;;;;;;;;7.50;86.00;;;;;;5019319;28;19933;-65
2022/04/15 03:53:00;;;;;;;;;;;7.50;86.00;;;;;;5030629;28;20011;-65
2022/04/15 03:55:28;;;;;;;;;;;7.40;85.80;;;;;;5029423;28;19936;-65
2022/04/15 03:57:55;;;;;;;;;;;7.50;87.30;;;;;;5028815;28;19933;-66
2022/04/15 04:00:23;;;;;;;;;;;7.50;87.50;;;;;;5029844;28;19975;-65
2022/04/15 04:02:52;;;;;;;;;;;7.40;87.60;;;;;;5028102;28;19929;-65
2022/04/15 04:05:20;;;;;;;;;;;7.40;87.40;;;;;;5028876;28;20260;-65
2022/04/15 04:07:47;;;;;;;;;;;7.40;87.10;;;;;;5033764;28;19933;-65
2022/04/15 04:10:15;;;;;;;;;;;7.40;89.10;;;;;;5026620;28;19940;-65
2022/04/15 04:12:43;;;;;;;;;;;7.40;88.20;;;;;;5032727;28;19928;-65
2022/04/15 04:15:10;;;;;;;;;;;7.40;88.70;;;;;;5032081;28;19939;-65
2022/04/15 04:17:37;;;;;;;;;;;7.40;89.00;;;;;;5046306;28;19960;-65
2022/04/15 04:20:05;;;;;;;;;;;7.50;88.90;;;;;;5031732;28;19939;-65
2022/04/15 04:22:33;;;;;;;;;;;7.50;89.60;;;;;;5030073;28;19928;-65
2022/04/15 04:25:00;;;;;;;;;;;7.50;90.00;;;;;;5035109;28;19929;-65
2022/04/15 04:27:27;;;;;;;;;;;7.50;90.00;;;;;;5043358;28;19929;-65
2022/04/15 04:29:54;;;;;;;;;;;7.50;88.20;;;;;;5030195;28;19959;-65
2022/04/15 04:32:21;;;;;;;;;;;7.50;88.60;;;;;;5029777;28;19937;-65
2022/04/15 04:34:48;;;;;;;;;;;7.60;88.70;;;;;;5031753;28;19928;-65
2022/04/15 04:37:15;;;;;;;;;;;7.70;87.50;;;;;;5034240;28;19940;-65
2022/04/15 04:39:42;;;;;;;;;;;7.80;87.70;;;;;;5033343;28;20410;-65
2022/04/15 04:42:09;;;;;;;;;;;7.80;89.20;;;;;;5037242;28;19929;-65
2022/04/15 04:44:38;;;;;;;;;;;7.80;87.80;;;;;;5035856;28;19925;-65
2022/04/15 04:47:06;;;;;;;;;;;7.90;86.70;;;;;;5037418;28;19933;-65
2022/04/15 04:49:33;;;;;;;;;;;7.90;86.00;;;;;;5036107;28;19935;-65
2022/04/15 04:52:00;;;;;;;;;;;8.00;85.60;;;;;;5035104;28;19960;-65
2022/04/15 04:54:27;;;;;;;;;;;8.00;84.80;;;;;;5031273;28;20402;-65
2022/04/15 04:56:53;;;;;;;;;;;8.00;83.00;;;;;;5031575;28;19974;-65
2022/04/15 04:59:22;;;;;;;;;;;8.10;82.20;;;;;;5034390;28;19979;-65
2022/04/15 05:01:49;;;;;;;;;;;8.10;81.00;;;;;;5000143;28;19937;-65
2022/04/15 05:04:16;;;;;;;;;;;8.20;80.90;;;;;;4986088;28;20071;-65
2022/04/15 05:06:43;;;;;;;;;;;8.20;79.60;;;;;;4989783;28;22387;-65
2022/04/15 05:09:10;;;;;;;;;;;8.30;78.60;;;;;;4986601;28;22603;-65
2022/04/15 05:11:37;;;;;;;;;;;8.30;78.80;;;;;;4977676;28;20056;-65
2022/04/15 05:14:03;;;;;;;;;;;8.40;78.70;;;;;;4989263;28;19983;-65
2022/04/15 05:16:30;;;;;;;;;;;8.50;78.20;;;;;;4985356;28;20434;-65
2022/04/15 05:18:57;;;;;;;;;;;8.60;78.10;;;;;;4987752;28;19933;-65
2022/04/15 05:21:24;;;;;;;;;;;8.60;77.70;;;;;;4989478;28;20413;-65
2022/04/15 05:23:51;;;;;;;;;;;8.70;77.70;;;;;;4987317;28;19933;-66
2022/04/15 05:26:20;;;;;;;;;;;8.80;76.20;;;;;;4978288;28;20113;-65
2022/04/15 05:28:47;;;;;;;;;;;8.90;76.20;;;;;;4982821;28;19933;-65
2022/04/15 05:31:14;;;;;;;;;;;8.90;75.80;;;;;;4986786;28;21115;-66
2022/04/15 05:33:41;;;;;;;;;;;9.00;76.00;;;;;;4990088;28;20743;-65
2022/04/15 05:36:07;;;;;;;;;;;9.10;75.90;;;;;;4986591;28;20426;-65
2022/04/15 05:38:35;;;;;;;;;;;9.10;74.30;;;;;;4989460;28;19933;-65
2022/04/15 05:41:02;;;;;;;;;;;9.20;74.50;;;;;;5006249;28;19955;-65
2022/04/15 05:43:29;;;;;;;;;;;9.30;75.10;;;;;;4988353;28;19986;-67
2022/04/15 05:45:56;;;;;;;;;;;9.40;73.20;;;;;;5000143;28;20083;-65
2022/04/15 05:48:23;;;;;;;;;;;9.50;72.80;;;;;;4987991;28;20039;-66
2022/04/15 05:50:51;;;;;;;;;;;9.50;73.20;;;;;;4988520;28;19955;-65
2022/04/15 05:53:18;;;;;;;;;;;9.60;73.70;;;;;;4990736;28;19983;-66
2022/04/15 05:55:45;;;;;;;;;;;9.70;74.20;;;;;;4990339;28;20458;-65
2022/04/15 05:58:12;;;;;;;;;;;9.80;72.80;;;;;;4988450;28;22335;-66
2022/04/15 06:00:39;;;;;;;;;;;9.80;73.10;;;;;;4985429;28;19972;-66
2022/04/15 06:03:09;;;;;;;;;;;9.90;73.20;;;;;;4985880;28;19933;-65
2022/04/15 06:05:37;;;;;;;;;;;10.10;73.40;;;;;;4988944;28;20007;-65
2022/04/15 06:08:04;;;;;;;;;;;10.20;71.00;;;;;;4986949;28;20022;-66
2022/04/15 06:10:31;;;;;;;;;;;10.30;70.90;;;;;;5004942;28;20035;-66
2022/04/15 06:13:04;;;;;;;;;;;10.40;70.30;;;;;;4999949;28;19991;-66
2022/04/15 06:15:32;;;;;;;;;;;10.60;70.40;;;;;;4989934;28;19940;-66
2022/04/15 06:18:00;;;;;;;;;;;10.80;68.70;;;;;;5001853;28;19939;-66
2022/04/15 06:20:27;;;;;;;;;;;10.90;68.90;;;;;;5002125;28;19988;-66
2022/04/15 06:22:55;;;;;;;;;;;11.10;72.10;;;;;;5004346;28;19940;-66
2022/04/15 06:25:22;;;;;;;;;;;11.10;70.00;;;;;;4988024;28;19933;-66
2022/04/15 06:27:52;;;;;;;;;;;11.30;69.50;;;;;;4988476;28;19940;-66
2022/04/15 06:30:21;;;;;;;;;;;11.40;72.00;;;;;;5003207;28;19940;-66
2022/04/15 06:32:48;;;;;;;;;;;11.60;70.30;;;;;;4987934;28;19940;-66
2022/04/15 06:35:15;;;;;;;;;;;11.80;68.00;;;;;;4985401;28;19939;-66
2022/04/15 06:37:42;;;;;;;;;;;12.00;70.90;;;;;;4985369;28;19971;-66
2022/04/15 06:40:09;;;;;;;;;;;12.20;70.70;;;;;;5004526;28;19933;-66
2022/04/15 06:42:37;;;;;;;;;;;12.50;70.20;;;;;;4983248;28;20014;-66
2022/04/15 06:45:04;;;;;;;;;;;12.60;70.00;;;;;;4983914;28;19933;-66
2022/04/15 06:47:31;;;;;;;;;;;12.80;65.70;;;;;;4987643;28;20067;-66
2022/04/15 06:49:58;;;;;;;;;;;13.00;64.90;;;;;;4989379;28;20442;-66
2022/04/15 06:52:25;;;;;;;;;;;13.10;65.20;;;;;;4993830;28;20052;-66
2022/04/15 06:54:52;;;;;;;;;;;13.30;63.90;;;;;;4990043;28;19933;-66
2022/04/15 06:57:20;;;;;;;;;;;13.30;63.30;;;;;;4988305;28;19933;-66
2022/04/15 06:59:48;;;;;;;;;;;13.50;62.30;;;;;;4989178;28;20020;-67
2022/04/15 07:02:14;;;;;;;;;;;13.40;60.60;;;;;;4985844;28;19932;-66
2022/04/15 07:04:42;;;;;;;;;;;13.30;62.70;;;;;;4988755;28;19940;-66
2022/04/15 07:07:09;;;;;;;;;;;13.40;64.50;;;;;;4987747;28;20036;-66
2022/04/15 07:09:36;;;;;;;;;;;13.80;65.00;;;;;;4988229;28;19933;-66
2022/04/15 07:12:03;;;;;;;;;;;14.00;62.70;;;;;;4986440;28;19940;-67
2022/04/15 07:14:32;;;;;;;;;;;14.30;61.20;;;;;;4985566;28;20926;-66
2022/04/15 07:17:00;;;;;;;;;;;14.40;62.80;;;;;;4986677;28;20026;-66
2022/04/15 07:19:27;;;;;;;;;;;14.40;60.20;;;;;;4998587;28;19940;-66
2022/04/15 07:21:54;;;;;;;;;;;14.30;59.10;;;;;;4988188;28;20009;-67
2022/04/15 07:24:21;;;;;;;;;;;14.40;59.50;;;;;;4985778;28;19940;-67
2022/04/15 07:26:48;;;;;;;;;;;14.50;59.90;;;;;;4986326;28;22375;-67
2022/04/15 07:29:15;;;;;;;;;;;14.70;60.40;;;;;;4990502;28;19940;-67
2022/04/15 07:31:42;;;;;;;;;;;14.80;59.10;;;;;;4986520;28;19940;-67
2022/04/15 07:34:09;;;;;;;;;;;14.70;60.40;;;;;;4984139;28;22283;-67
2022/04/15 07:39:06;;;;;;;;;;;14.90;61.50;;;;;;4986499;28;19932;-66
2022/04/15 07:41:36;;;;;;;;;;;15.10;61.20;;;;;;4986955;28;19933;-67
2022/04/15 07:44:04;;;;;;;;;;;15.30;59.70;;;;;;4977104;28;19933;-66
2022/04/15 07:46:32;;;;;;;;;;;15.50;59.10;;;;;;4998417;28;19940;-66
2022/04/15 07:48:59;;;;;;;;;;;15.60;57.70;;;;;;4996086;28;20450;-67
2022/04/15 07:51:29;;;;;;;;;;;15.70;57.10;;;;;;4985444;28;22339;-67
2022/04/15 07:53:56;;;;;;;;;;;16.00;54.90;;;;;;4984489;28;21240;-67
2022/04/15 07:56:23;;;;;;;;;;;16.20;55.40;;;;;;4987838;28;19933;-67
2022/04/15 07:58:50;;;;;;;;;;;16.30;52.50;;;;;;4991771;28;19972;-67
2022/04/15 08:01:18;;;;;;;;;;;16.40;51.80;;;;;;4985500;28;20059;-66
2022/04/15 08:03:46;;;;;;;;;;;16.50;52.70;;;;;;4988272;28;20700;-67
2022/04/15 08:06:13;;;;;;;;;;;16.70;53.10;;;;;;4986962;28;22327;-67
2022/04/15 08:08:40;;;;;;;;;;;16.90;51.40;;;;;;4987958;28;20049;-66
2022/04/15 08:11:07;;;;;;;;;;;17.10;51.80;;;;;;4985767;28;19940;-67
2022/04/15 08:13:34;;;;;;;;;;;17.30;53.10;;;;;;4988790;28;20071;-67
2022/04/15 08:16:03;;;;;;;;;;;17.00;51.00;;;;;;4992427;28;19933;-67
2022/04/15 08:18:30;;;;;;;;;;;17.20;48.50;;;;;;4992259;28;20596;-68
2022/04/15 08:20:57;;;;;;;;;;;17.50;48.80;;;;;;4989760;28;19940;-68
2022/04/15 08:23:24;;;;;;;;;;;17.80;48.90;;;;;;4992468;28;21066;-69
2022/04/15 08:25:51;;;;;;;;;;;17.70;48.20;;;;;;4992908;28;19940;-68
2022/04/15 08:28:21;;;;;;;;;;;17.90;49.50;;;;;;4982043;28;19933;-67
2022/04/15 08:30:48;;;;;;;;;;;18.00;49.10;;;;;;4988701;28;22338;-67
2022/04/15 08:33:16;;;;;;;;;;;17.90;49.00;;;;;;4990390;28;19971;-67
2022/04/15 08:35:43;;;;;;;;;;;18.10;48.60;;;;;;4991187;28;19940;-68
2022/04/15 08:38:11;;;;;;;;;;;18.40;47.30;;;;;;4990239;28;20084;-70
2022/04/15 08:40:39;;;;;;;;;;;17.90;43.70;;;;;;4993473;28;20075;-67
2022/04/15 08:43:07;;;;;;;;;;;18.00;44.40;;;;;;4989974;28;19932;-68
2022/04/15 08:45:35;;;;;;;;;;;18.30;43.40;;;;;;4989733;28;20048;-68
2022/04/15 08:48:08;;;;;;;;;;;18.40;45.20;;;;;;4985343;28;22304;-67
2022/04/15 08:50:35;;;;;;;;;;;18.40;46.40;;;;;;4991109;28;19940;-68
2022/04/15 08:53:04;;;;;;;;;;;18.30;43.40;;;;;;4991834;28;19937;-67
2022/04/15 08:55:31;;;;;;;;;;;18.00;43.70;;;;;;5004948;28;19972;-68
2022/04/15 08:57:58;;;;;;;;;;;18.30;43.40;;;;;;4979569;28;19940;-68
2022/04/15 09:00:29;;;;;;;;;;;18.70;41.50;;;;;;4991033;28;22467;-68
2022/04/15 09:02:56;;;;;;;;;;;18.70;41.20;;;;;;4989142;28;19939;-67
2022/04/15 09:05:25;;;;;;;;;;;18.90;42.10;;;;;;4992091;28;19933;-68
2022/04/15 09:08:06;;;;;;;;;;;18.70;39.60;;;;;;4990382;28;23573;-67
2022/04/15 09:10:34;;;;;;;;;;;19.00;41.30;;;;;;5004818;28;20129;-68
2022/04/15 09:13:03;;;;;;;;;;;19.30;44.50;;;;;;5006006;28;21415;-67
2022/04/15 09:15:35;;;;;;;;;;;19.20;41.10;;;;;;4990282;28;19933;-67
2022/04/15 09:18:02;;;;;;;;;;;19.10;44.40;;;;;;4989527;28;19942;-67
2022/04/15 09:20:34;;;;;;;;;;;19.20;43.00;;;;;;4988640;28;20201;-68
2022/04/15 09:23:09;;;;;;;;;;;19.30;43.20;;;;;;4990534;28;20058;-67
2022/04/15 09:25:36;;;;;;;;;;;19.60;43.40;;;;;;4990362;28;19940;-68
2022/04/15 09:28:03;;;;;;;;;;;19.60;42.00;;;;;;4989107;28;19972;-67
2022/04/15 09:30:36;;;;;;;;;;;19.40;41.60;;;;;;4990541;28;19940;-67
2022/04/15 09:33:04;;;;;;;;;;;19.10;43.10;;;;;;4987493;28;21141;-67
2022/04/15 09:35:31;;;;;;;;;;;19.10;42.60;;;;;;4986059;28;19933;-67
2022/04/15 09:38:03;;;;;;;;;;;19.40;40.30;;;;;;4986919;28;19933;-68
2022/04/15 09:40:35;;;;;;;;;;;19.60;39.80;;;;;;4985716;28;19940;-68
2022/04/15 09:43:06;;;;;;;;;;;20.00;39.00;;;;;;4983947;28;20715;-68
2022/04/15 09:45:34;;;;;;;;;;;19.90;38.70;;;;;;4982895;28;19933;-67
2022/04/15 09:48:03;;;;;;;;;;;20.00;38.50;;;;;;4979226;28;20110;-67
2022/04/15 09:50:38;;;;;;;;;;;19.90;39.00;;;;;;4981345;28;19933;-66
2022/04/15 09:53:10;;;;;;;;;;;19.80;38.50;;;;;;4984258;28;19965;-67
2022/04/15 09:55:39;;;;;;;;;;;19.80;38.60;;;;;;4989938;28;20043;-67
2022/04/15 09:58:08;;;;;;;;;;;19.90;37.90;;;;;;4988465;28;19933;-67
2022/04/15 10:00:36;;;;;;;;;;;20.00;38.40;;;;;;4994746;28;19933;-67
2022/04/15 10:03:06;;;;;;;;;;;20.30;38.50;;;;;;4985826;28;19933;-67
2022/04/15 10:05:34;;;;;;;;;;;20.50;38.40;;;;;;4987155;28;19936;-67
2022/04/15 10:08:02;;;;;;;;;;;20.70;39.60;;;;;;4985817;28;19939;-67
2022/04/15 10:10:31;;;;;;;;;;;20.60;38.30;;;;;;4986094;28;19940;-68
2022/04/15 10:12:59;;;;;;;;;;;20.70;38.20;;;;;;4997899;28;20029;-68
2022/04/15 10:15:29;;;;;;;;;;;20.90;38.70;;;;;;4977338;28;19933;-68
2022/04/15 10:17:58;;;;;;;;;;;20.80;37.60;;;;;;4986626;28;19940;-68
2022/04/15 10:20:26;;;;;;;;;;;20.60;37.10;;;;;;4993106;28;19969;-68
2022/04/15 10:22:55;;;;;;;;;;;20.50;38.50;;;;;;4986924;28;19939;-68
2022/04/15 10:25:23;;;;;;;;;;;20.30;37.30;;;;;;4988037;28;19940;-68
2022/04/15 10:27:50;;;;;;;;;;;20.20;38.70;;;;;;4985825;28;19933;-67
2022/04/15 10:30:21;;;;;;;;;;;20.20;39.10;;;;;;4987230;28;19933;-67
2022/04/15 10:32:49;;;;;;;;;;;20.50;39.30;;;;;;4987199;28;19933;-67
2022/04/15 10:35:22;;;;;;;;;;;20.40;38.20;;;;;;4993478;28;19933;-66
2022/04/15 10:37:54;;;;;;;;;;;20.30;39.10;;;;;;4989072;28;19940;-68
2022/04/15 10:40:26;;;;;;;;;;;20.50;37.40;;;;;;4989524;28;19940;-67
2022/04/15 10:42:53;;;;;;;;;;;20.80;38.40;;;;;;5003822;28;19939;-67
2022/04/15 10:45:34;;;;;;;;;;;20.60;37.00;;;;;;4988884;28;19939;-67
2022/04/15 10:48:04;;;;;;;;;;;20.90;38.00;;;;;;4990377;28;19940;-67
2022/04/15 10:50:33;;;;;;;;;;;21.10;37.80;;;;;;4987332;28;19933;-66
2022/04/15 10:53:19;;;;;;;;;;;21.00;37.80;;;;;;5000408;28;19933;-67
2022/04/15 10:55:52;;;;;;;;;;;20.90;36.70;;;;;;5003395;28;19940;-67
2022/04/15 10:58:20;;;;;;;;;;;20.80;36.90;;;;;;4994541;28;19933;-67
2022/04/15 11:01:16;;;;;;;;;;;21.20;37.50;;;;;;4980105;28;20007;-67
2022/04/15 11:03:50;;;;;;;;;;;21.10;36.50;;;;;;4986705;28;19933;-68
2022/04/15 11:06:28;;;;;;;;;;;20.70;36.60;;;;;;4986661;28;19940;-67
2022/04/15 11:09:12;;;;;;;;;;;20.80;38.10;;;;;;4989286;28;20052;-67
2022/04/15 11:11:41;;;;;;;;;;;20.70;37.10;;;;;;4987311;28;19941;-68
2022/04/15 11:14:13;;;;;;;;;;;20.50;35.90;;;;;;4999276;28;19933;-68
2022/04/15 11:16:41;;;;;;;;;;;20.20;35.30;;;;;;4986297;28;19933;-68
2022/04/15 11:19:11;;;;;;;;;;;20.00;36.30;;;;;;4974270;28;22644;-68
2022/04/15 11:21:39;;;;;;;;;;;20.00;37.30;;;;;;4986921;28;19990;-68
2022/04/15 11:24:06;;;;;;;;;;;19.80;36.90;;;;;;4988904;28;19937;-67
2022/04/15 11:26:34;;;;;;;;;;;19.80;37.00;;;;;;4980709;28;21916;-68
2022/04/15 11:29:02;;;;;;;;;;;19.90;37.10;;;;;;4982730;28;19933;-68
2022/04/15 11:31:30;;;;;;;;;;;19.90;37.40;;;;;;4982157;28;19979;-68
2022/04/15 11:34:17;;;;;;;;;;;19.90;37.60;;;;;;4979696;28;19940;-68
2022/04/15 11:36:48;;;;;;;;;;;19.70;37.50;;;;;;4977624;28;19933;-68
2022/04/15 11:39:20;;;;;;;;;;;19.50;39.00;;;;;;4973119;28;19940;-68
2022/04/15 11:41:50;;;;;;;;;;;19.40;38.70;;;;;;4974399;28;19933;-68
2022/04/15 11:44:17;;;;;;;;;;;19.40;38.40;;;;;;4984232;28;19933;-67
2022/04/15 11:46:46;;;;;;;;;;;19.40;38.70;;;;;;4981374;28;19932;-67
2022/04/15 11:49:14;;;;;;;;;;;19.40;38.30;;;;;;4981673;28;19994;-68
2022/04/15 11:51:45;;;;;;;;;;;19.40;38.10;;;;;;4980194;28;19983;-68
2022/04/15 11:54:13;;;;;;;;;;;19.50;38.70;;;;;;4969384;28;22180;-68
2022/04/15 11:56:42;;;;;;;;;;;19.30;38.30;;;;;;4981899;28;19940;-68
2022/04/15 11:59:13;;;;;;;;;;;19.30;39.00;;;;;;4984503;28;20028;-68
2022/04/15 12:01:40;;;;;;;;;;;19.30;40.40;;;;;;4971787;28;19932;-67
2022/04/15 12:04:07;;;;;;;;;;;19.30;40.40;;;;;;4978902;28;19990;-67
2022/04/15 12:06:40;;;;;;;;;;;19.20;40.20;;;;;;4978576;28;20706;-68
2022/04/15 12:09:12;;;;;;;;;;;19.20;40.00;;;;;;4986416;28;19933;-69
2022/04/15 12:12:01;;;;;;;;;;;19.10;40.30;;;;;;4996830;28;20039;-68
2022/04/15 12:14:34;;;;;;;;;;;18.90;40.40;;;;;;4988373;28;19968;-68
2022/04/15 12:17:01;;;;;;;;;;;18.90;41.10;;;;;;5002703;28;22305;-68
2022/04/15 12:19:28;;;;;;;;;;;18.90;41.20;;;;;;4988379;28;20024;-66
2022/04/15 12:21:58;;;;;;;;;;;19.00;41.80;;;;;;4987382;28;22502;-67
2022/04/15 12:24:30;;;;;;;;;;;18.90;41.10;;;;;;4988656;28;19933;-67
2022/04/15 12:27:00;;;;;;;;;;;18.90;42.20;;;;;;4986429;28;20425;-67
2022/04/15 12:32:22;;;;;;;;;;;18.90;41.90;;;;;;4985102;28;22365;-67
2022/04/15 12:34:51;;;;;;;;;;;18.80;42.30;;;;;;4988785;28;19933;-66
2022/04/15 12:37:37;;;;;;;;;;;18.70;41.90;;;;;;4986188;28;22343;-66
2022/04/15 12:40:10;;;;;;;;;;;18.60;42.10;;;;;;4988384;28;19965;-66
2022/04/15 12:42:37;;;;;;;;;;;18.50;43.70;;;;;;4984400;28;19990;-67
2022/04/15 12:45:09;;;;;;;;;;;18.40;43.60;;;;;;4984505;28;19974;-67
2022/04/15 12:47:37;;;;;;;;;;;18.30;44.20;;;;;;4987035;28;20036;-67
2022/04/15 12:50:19;;;;;;;;;;;18.20;44.60;;;;;;4988087;28;19933;-67
2022/04/15 12:52:50;;;;;;;;;;;18.00;45.50;;;;;;4985199;28;20129;-66
2022/04/15 12:55:34;;;;;;;;;;;17.80;48.50;;;;;;4986974;28;19933;-67
2022/04/15 12:58:03;;;;;;;;;;;17.60;53.80;;;;;;4983347;28;19940;-67
2022/04/15 13:00:30;;;;;;;;;;;17.00;62.10;;;;;;4987255;28;20522;-67
2022/04/15 13:02:57;;;;;;;;;;;16.30;70.10;;;;;;4990872;28;22399;-66
2022/04/15 13:05:24;;;;;;;;;;;16.00;74.10;;;;;;4980162;28;19939;-67
2022/04/15 13:07:52;;;;;;;;;;;15.70;76.80;;;;;;4984044;28;19934;-67
2022/04/15 13:10:20;;;;;;;;;;;15.60;81.10;;;;;;4989714;28;19933;-67
2022/04/15 13:13:08;;;;;;;;;;;15.60;84.50;;;;;;5002667;28;20011;-67
2022/04/15 13:15:36;;;;;;;;;;;15.50;84.50;;;;;;4985588;28;20022;-67
2022/04/15 13:18:04;;;;;;;;;;;15.30;88.10;;;;;;4984958;28;22356;-67
2022/04/15 13:20:31;;;;;;;;;;;15.10;90.50;;;;;;4988612;28;19959;-67
2022/04/15 13:22:58;;;;;;;;;;;15.30;91.70;;;;;;4987286;28;19955;-67
2022/04/15 13:25:25;;;;;;;;;;;15.20;91.70;;;;;;4999715;28;20412;-67
2022/04/15 13:27:52;;;;;;;;;;;15.10;92.90;;;;;;4982885;28;20939;-67
2022/04/15 13:30:19;;;;;;;;;;;15.10;93.20;;;;;;4984590;28;19933;-67
2022/04/15 13:32:46;;;;;;;;;;;15.30;93.50;;;;;;4987923;28;19933;-68
2022/04/15 13:35:13;;;;;;;;;;;15.40;95.40;;;;;;4988015;28;20016;-66
2022/04/15 13:37:40;;;;;;;;;;;15.40;96.40;;;;;;4987203;28;20067;-67
2022/04/15 13:40:08;;;;;;;;;;;15.20;96.20;;;;;;4985745;28;19968;-67
2022/04/15 13:42:35;;;;;;;;;;;15.30;97.50;;;;;;4985466;28;19933;-67
2022/04/15 13:45:02;;;;;;;;;;;15.40;97.80;;;;;;4983784;28;20014;-67
2022/04/15 13:47:29;;;;;;;;;;;15.50;96.70;;;;;;4970712;28;19933;-67
2022/04/15 13:49:56;;;;;;;;;;;15.70;97.20;;;;;;4973810;28;20921;-66
2022/04/15 13:57:55;;;;;;;;;;;15.70;96.20;;;;;;4986943;28;19940;-67
2022/04/15 14:00:22;;;;;;;;;;;15.60;96.50;;;;;;4987602;28;19945;-67
2022/04/15 14:02:49;;;;;;;;;;;15.60;96.20;;;;;;4982117;28;20498;-67
2022/04/15 14:05:16;;;;;;;;;;;15.50;95.30;;;;;;4987279;28;22426;-67
2022/04/15 14:07:44;;;;;;;;;;;15.50;94.60;;;;;;4987827;28;19987;-66
2022/04/15 14:10:11;;;;;;;;;;;15.50;95.30;;;;;;4987534;28;20331;-66
2022/04/15 14:12:38;;;;;;;;;;;15.40;94.10;;;;;;4985809;28;20072;-66
2022/04/15 14:15:05;;;;;;;;;;;15.30;94.50;;;;;;4985688;28;20576;-66
2022/04/15 14:17:32;;;;;;;;;;;15.40;94.40;;;;;;4988011;28;19932;-67
2022/04/15 14:19:59;;;;;;;;;;;15.30;92.10;;;;;;4987740;28;19932;-67
2022/04/15 14:22:26;;;;;;;;;;;15.40;93.20;;;;;;4987098;28;20063;-67
2022/04/15 14:24:53;;;;;;;;;;;15.30;93.90;;;;;;4980783;28;19933;-67
2022/04/15 14:27:22;;;;;;;;;;;15.30;92.10;;;;;;4980419;28;20217;-66
2022/04/15 14:29:49;;;;;;;;;;;15.30;93.10;;;;;;4984604;28;21226;-67
2022/04/15 14:32:16;;;;;;;;;;;15.30;93.30;;;;;;4987223;28;19933;-67
2022/04/15 14:34:43;;;;;;;;;;;15.40;93.40;;;;;;5002749;28;19933;-67
2022/04/15 14:37:10;;;;;;;;;;;15.40;93.10;;;;;;4991111;28;20045;-67
2022/04/15 14:39:37;;;;;;;;;;;15.40;93.10;;;;;;4982275;28;19944;-67
2022/04/15 14:42:04;;;;;;;;;;;15.50;93.10;;;;;;4982557;28;19933;-67